sensor_id;sensor_type;location;lat;lon;timestamp;P1;durP1;ratioP1;P2;durP2;ratioP2
69623;SDS011;56843;52.020;5.670;2022-09-24T00:00:45;29.27;;;16.37;;
69623;SDS011;56843;52.020;5.670;2022-09-24T00:02:21;32.03;;;17.02;;
69623;SDS011;56843;52.020;5.670;2022-09-24T00:03:55;27.90;;;15.10;;
69623;SDS011;56843;52.020;5.670;2022-09-24T00:05:35;25.30;;;13.95;;
69623;SDS011;56843;52.020;5.670;2022-09-24T00:07:06;32.15;;;16.48;;
69623;SDS011;56843;52.020;5.670;2022-09-24T00:08:36;29.07;;;15.30;;
69623;SDS011;56843;52.020;5.670;2022-09-24T00:10:07;26.88;;;13.13;;
69623;SDS011;56843;52.020;5.670;2022-09-24T00:11:38;33.97;;;15.03;;
69623;SDS011;56843;52.020;5.670;2022-09-24T00:13:10;26.63;;;14.35;;
69623;SDS011;56843;52.020;5.670;2022-09-24T00:14:42;31.58;;;15.38;;
69623;SDS011;56843;52.020;5.670;2022-09-24T00:16:14;32.07;;;15.33;;
69623;SDS011;56843;52.020;5.670;2022-09-24T00:17:45;30.00;;;15.13;;
69623;SDS011;56843;52.020;5.670;2022-09-24T00:19:16;25.48;;;12.90;;
69623;SDS011;56843;52.020;5.670;2022-09-24T00:20:46;24.40;;;13.63;;
69623;SDS011;56843;52.020;5.670;2022-09-24T00:22:17;32.03;;;14.57;;
69623;SDS011;56843;52.020;5.670;2022-09-24T00:23:48;24.97;;;12.60;;
69623;SDS011;56843;52.020;5.670;2022-09-24T00:25:20;29.50;;;14.43;;
69623;SDS011;56843;52.020;5.670;2022-09-24T00:27:09;30.80;;;14.02;;
69623;SDS011;56843;52.020;5.670;2022-09-24T00:28:40;33.23;;;14.83;;
69623;SDS011;56843;52.020;5.670;2022-09-24T00:30:11;36.40;;;17.65;;
69623;SDS011;56843;52.020;5.670;2022-09-24T00:31:41;24.50;;;12.90;;
69623;SDS011;56843;52.020;5.670;2022-09-24T00:33:12;24.70;;;13.20;;
69623;SDS011;56843;52.020;5.670;2022-09-24T00:34:42;28.13;;;14.40;;
69623;SDS011;56843;52.020;5.670;2022-09-24T00:36:12;27.97;;;13.83;;
69623;SDS011;56843;52.020;5.670;2022-09-24T00:37:43;26.83;;;13.32;;
69623;SDS011;56843;52.020;5.670;2022-09-24T00:39:14;27.33;;;14.40;;
69623;SDS011;56843;52.020;5.670;2022-09-24T00:40:45;29.70;;;13.88;;
69623;SDS011;56843;52.020;5.670;2022-09-24T00:42:17;29.03;;;15.33;;
69623;SDS011;56843;52.020;5.670;2022-09-24T00:43:48;29.23;;;14.00;;
69623;SDS011;56843;52.020;5.670;2022-09-24T00:45:20;29.83;;;15.07;;
69623;SDS011;56843;52.020;5.670;2022-09-24T00:46:50;30.40;;;14.90;;
69623;SDS011;56843;52.020;5.670;2022-09-24T00:48:21;31.85;;;16.63;;
69623;SDS011;56843;52.020;5.670;2022-09-24T00:49:52;30.70;;;15.40;;
69623;SDS011;56843;52.020;5.670;2022-09-24T00:51:31;31.50;;;14.52;;
69623;SDS011;56843;52.020;5.670;2022-09-24T00:53:04;32.13;;;16.40;;
69623;SDS011;56843;52.020;5.670;2022-09-24T00:54:39;32.08;;;15.27;;
69623;SDS011;56843;52.020;5.670;2022-09-24T00:56:12;31.92;;;15.50;;
69623;SDS011;56843;52.020;5.670;2022-09-24T00:57:44;30.33;;;16.45;;
69623;SDS011;56843;52.020;5.670;2022-09-24T00:59:18;29.85;;;13.73;;
69623;SDS011;56843;52.020;5.670;2022-09-24T01:02:33;30.77;;;15.48;;
69623;SDS011;56843;52.020;5.670;2022-09-24T01:04:06;32.50;;;14.60;;
69623;SDS011;56843;52.020;5.670;2022-09-24T01:05:38;30.83;;;16.30;;
69623;SDS011;56843;52.020;5.670;2022-09-24T01:07:08;26.85;;;13.77;;
69623;SDS011;56843;52.020;5.670;2022-09-24T01:08:39;33.70;;;17.37;;
69623;SDS011;56843;52.020;5.670;2022-09-24T01:10:10;27.55;;;14.63;;
69623;SDS011;56843;52.020;5.670;2022-09-24T01:17:15;38.03;;;17.05;;
69623;SDS011;56843;52.020;5.670;2022-09-24T01:19:16;36.10;;;17.23;;
69623;SDS011;56843;52.020;5.670;2022-09-24T01:25:02;30.25;;;15.88;;
69623;SDS011;56843;52.020;5.670;2022-09-24T01:30:36;32.15;;;14.88;;
69623;SDS011;56843;52.020;5.670;2022-09-24T01:32:14;39.92;;;16.88;;
69623;SDS011;56843;52.020;5.670;2022-09-24T01:33:52;36.08;;;16.50;;
69623;SDS011;56843;52.020;5.670;2022-09-24T01:35:30;38.85;;;16.92;;
69623;SDS011;56843;52.020;5.670;2022-09-24T01:37:05;40.00;;;18.55;;
69623;SDS011;56843;52.020;5.670;2022-09-24T01:38:40;35.45;;;18.42;;
69623;SDS011;56843;52.020;5.670;2022-09-24T01:40:13;32.45;;;15.25;;
69623;SDS011;56843;52.020;5.670;2022-09-24T01:41:45;31.35;;;16.00;;
69623;SDS011;56843;52.020;5.670;2022-09-24T01:43:19;38.83;;;18.47;;
69623;SDS011;56843;52.020;5.670;2022-09-24T01:44:54;38.43;;;19.20;;
69623;SDS011;56843;52.020;5.670;2022-09-24T01:46:26;38.08;;;17.70;;
69623;SDS011;56843;52.020;5.670;2022-09-24T01:47:58;38.13;;;18.88;;
69623;SDS011;56843;52.020;5.670;2022-09-24T01:49:32;29.58;;;14.15;;
69623;SDS011;56843;52.020;5.670;2022-09-24T01:51:07;36.87;;;17.00;;
69623;SDS011;56843;52.020;5.670;2022-09-24T01:52:47;35.78;;;16.92;;
69623;SDS011;56843;52.020;5.670;2022-09-24T01:56:24;33.60;;;16.55;;
69623;SDS011;56843;52.020;5.670;2022-09-24T01:58:05;38.30;;;16.75;;
69623;SDS011;56843;52.020;5.670;2022-09-24T01:59:43;42.17;;;18.45;;
69623;SDS011;56843;52.020;5.670;2022-09-24T02:01:20;39.20;;;17.83;;
69623;SDS011;56843;52.020;5.670;2022-09-24T02:02:58;30.30;;;15.23;;
69623;SDS011;56843;52.020;5.670;2022-09-24T02:04:38;30.67;;;15.27;;
69623;SDS011;56843;52.020;5.670;2022-09-24T02:06:30;33.17;;;15.82;;
69623;SDS011;56843;52.020;5.670;2022-09-24T02:08:07;42.90;;;18.63;;
69623;SDS011;56843;52.020;5.670;2022-09-24T02:09:42;38.80;;;18.35;;
69623;SDS011;56843;52.020;5.670;2022-09-24T02:11:16;35.60;;;17.25;;
69623;SDS011;56843;52.020;5.670;2022-09-24T02:12:55;36.38;;;17.65;;
69623;SDS011;56843;52.020;5.670;2022-09-24T02:14:31;40.20;;;19.05;;
69623;SDS011;56843;52.020;5.670;2022-09-24T02:16:07;29.73;;;15.00;;
69623;SDS011;56843;52.020;5.670;2022-09-24T02:17:42;30.00;;;14.77;;
69623;SDS011;56843;52.020;5.670;2022-09-24T02:19:21;31.73;;;15.63;;
69623;SDS011;56843;52.020;5.670;2022-09-24T02:20:55;36.25;;;17.30;;
69623;SDS011;56843;52.020;5.670;2022-09-24T02:22:29;33.85;;;17.35;;
69623;SDS011;56843;52.020;5.670;2022-09-24T02:24:04;33.65;;;17.58;;
69623;SDS011;56843;52.020;5.670;2022-09-24T02:25:44;43.67;;;20.13;;
69623;SDS011;56843;52.020;5.670;2022-09-24T02:27:25;33.97;;;16.35;;
69623;SDS011;56843;52.020;5.670;2022-09-24T02:28:59;34.67;;;17.52;;
69623;SDS011;56843;52.020;5.670;2022-09-24T02:30:30;31.13;;;15.33;;
69623;SDS011;56843;52.020;5.670;2022-09-24T02:32:13;37.08;;;18.27;;
69623;SDS011;56843;52.020;5.670;2022-09-24T02:33:48;36.15;;;14.85;;
69623;SDS011;56843;52.020;5.670;2022-09-24T02:35:38;35.05;;;17.27;;
69623;SDS011;56843;52.020;5.670;2022-09-24T02:37:10;34.22;;;15.95;;
69623;SDS011;56843;52.020;5.670;2022-09-24T02:38:43;35.58;;;17.23;;
69623;SDS011;56843;52.020;5.670;2022-09-24T02:40:15;34.42;;;15.40;;
69623;SDS011;56843;52.020;5.670;2022-09-24T02:41:47;33.17;;;16.33;;
69623;SDS011;56843;52.020;5.670;2022-09-24T02:43:19;37.85;;;16.98;;
69623;SDS011;56843;52.020;5.670;2022-09-24T02:44:49;40.10;;;17.53;;
69623;SDS011;56843;52.020;5.670;2022-09-24T02:46:21;32.70;;;16.35;;
69623;SDS011;56843;52.020;5.670;2022-09-24T02:47:51;33.97;;;16.48;;
69623;SDS011;56843;52.020;5.670;2022-09-24T02:49:23;37.97;;;18.43;;
69623;SDS011;56843;52.020;5.670;2022-09-24T02:50:53;35.27;;;14.60;;
69623;SDS011;56843;52.020;5.670;2022-09-24T02:52:23;32.73;;;14.57;;
69623;SDS011;56843;52.020;5.670;2022-09-24T02:53:54;36.30;;;17.50;;
69623;SDS011;56843;52.020;5.670;2022-09-24T02:55:24;37.00;;;16.45;;
69623;SDS011;56843;52.020;5.670;2022-09-24T02:56:55;37.97;;;16.93;;
69623;SDS011;56843;52.020;5.670;2022-09-24T02:58:26;38.35;;;17.50;;
69623;SDS011;56843;52.020;5.670;2022-09-24T02:59:57;32.27;;;15.50;;
69623;SDS011;56843;52.020;5.670;2022-09-24T03:01:28;32.37;;;16.83;;
69623;SDS011;56843;52.020;5.670;2022-09-24T03:02:58;34.83;;;15.95;;
69623;SDS011;56843;52.020;5.670;2022-09-24T03:04:29;32.47;;;16.87;;
69623;SDS011;56843;52.020;5.670;2022-09-24T03:06:00;40.85;;;19.08;;
69623;SDS011;56843;52.020;5.670;2022-09-24T03:07:31;37.63;;;18.70;;
69623;SDS011;56843;52.020;5.670;2022-09-24T03:09:01;30.23;;;15.77;;
69623;SDS011;56843;52.020;5.670;2022-09-24T03:10:33;33.20;;;16.75;;
69623;SDS011;56843;52.020;5.670;2022-09-24T03:12:04;38.05;;;17.70;;
69623;SDS011;56843;52.020;5.670;2022-09-24T03:13:34;36.23;;;16.57;;
69623;SDS011;56843;52.020;5.670;2022-09-24T03:15:05;34.47;;;16.85;;
69623;SDS011;56843;52.020;5.670;2022-09-24T03:16:35;29.57;;;14.97;;
69623;SDS011;56843;52.020;5.670;2022-09-24T03:18:06;32.80;;;16.23;;
69623;SDS011;56843;52.020;5.670;2022-09-24T03:19:36;30.58;;;16.13;;
69623;SDS011;56843;52.020;5.670;2022-09-24T03:21:08;32.47;;;14.43;;
69623;SDS011;56843;52.020;5.670;2022-09-24T03:22:44;32.97;;;17.15;;
69623;SDS011;56843;52.020;5.670;2022-09-24T03:24:14;34.43;;;16.30;;
69623;SDS011;56843;52.020;5.670;2022-09-24T03:25:44;35.67;;;17.37;;
69623;SDS011;56843;52.020;5.670;2022-09-24T03:27:15;29.97;;;14.73;;
69623;SDS011;56843;52.020;5.670;2022-09-24T03:28:45;32.53;;;16.35;;
69623;SDS011;56843;52.020;5.670;2022-09-24T03:30:16;32.27;;;15.00;;
69623;SDS011;56843;52.020;5.670;2022-09-24T03:32:05;37.38;;;16.30;;
69623;SDS011;56843;52.020;5.670;2022-09-24T03:33:45;28.37;;;13.93;;
69623;SDS011;56843;52.020;5.670;2022-09-24T03:35:18;37.38;;;15.55;;
69623;SDS011;56843;52.020;5.670;2022-09-24T03:36:49;29.30;;;14.52;;
69623;SDS011;56843;52.020;5.670;2022-09-24T03:38:20;24.77;;;13.83;;
69623;SDS011;56843;52.020;5.670;2022-09-24T03:39:50;32.43;;;14.00;;
69623;SDS011;56843;52.020;5.670;2022-09-24T03:41:21;30.88;;;14.50;;
69623;SDS011;56843;52.020;5.670;2022-09-24T03:42:55;30.67;;;14.77;;
69623;SDS011;56843;52.020;5.670;2022-09-24T03:44:25;30.67;;;13.57;;
69623;SDS011;56843;52.020;5.670;2022-09-24T03:45:56;25.57;;;13.23;;
69623;SDS011;56843;52.020;5.670;2022-09-24T03:47:27;30.88;;;14.18;;
69623;SDS011;56843;52.020;5.670;2022-09-24T03:49:00;25.27;;;12.85;;
69623;SDS011;56843;52.020;5.670;2022-09-24T03:50:30;28.57;;;13.27;;
69623;SDS011;56843;52.020;5.670;2022-09-24T03:52:04;27.20;;;11.48;;
69623;SDS011;56843;52.020;5.670;2022-09-24T03:53:35;30.90;;;13.73;;
69623;SDS011;56843;52.020;5.670;2022-09-24T03:55:06;25.55;;;12.98;;
69623;SDS011;56843;52.020;5.670;2022-09-24T03:56:37;28.42;;;11.93;;
69623;SDS011;56843;52.020;5.670;2022-09-24T03:58:07;24.27;;;10.93;;
69623;SDS011;56843;52.020;5.670;2022-09-24T03:59:37;27.07;;;12.50;;
69623;SDS011;56843;52.020;5.670;2022-09-24T04:01:08;22.58;;;12.18;;
69623;SDS011;56843;52.020;5.670;2022-09-24T04:02:41;23.80;;;11.70;;
69623;SDS011;56843;52.020;5.670;2022-09-24T04:04:12;23.23;;;11.30;;
69623;SDS011;56843;52.020;5.670;2022-09-24T04:05:45;22.45;;;10.95;;
69623;SDS011;56843;52.020;5.670;2022-09-24T04:07:16;25.42;;;12.30;;
69623;SDS011;56843;52.020;5.670;2022-09-24T04:08:47;24.00;;;11.67;;
69623;SDS011;56843;52.020;5.670;2022-09-24T04:10:17;25.07;;;12.17;;
69623;SDS011;56843;52.020;5.670;2022-09-24T04:11:48;25.43;;;11.63;;
69623;SDS011;56843;52.020;5.670;2022-09-24T04:13:18;24.53;;;12.33;;
69623;SDS011;56843;52.020;5.670;2022-09-24T04:14:49;24.92;;;12.52;;
69623;SDS011;56843;52.020;5.670;2022-09-24T04:16:19;22.33;;;10.93;;
69623;SDS011;56843;52.020;5.670;2022-09-24T04:17:54;23.77;;;11.30;;
69623;SDS011;56843;52.020;5.670;2022-09-24T04:19:25;23.75;;;9.93;;
69623;SDS011;56843;52.020;5.670;2022-09-24T04:20:57;27.70;;;11.90;;
69623;SDS011;56843;52.020;5.670;2022-09-24T04:22:28;23.73;;;12.23;;
69623;SDS011;56843;52.020;5.670;2022-09-24T04:23:59;25.13;;;11.82;;
69623;SDS011;56843;52.020;5.670;2022-09-24T04:25:30;25.17;;;10.87;;
69623;SDS011;56843;52.020;5.670;2022-09-24T04:27:01;23.65;;;11.55;;
69623;SDS011;56843;52.020;5.670;2022-09-24T04:28:31;20.87;;;9.93;;
69623;SDS011;56843;52.020;5.670;2022-09-24T04:30:02;23.63;;;10.83;;
69623;SDS011;56843;52.020;5.670;2022-09-24T04:31:32;24.55;;;11.65;;
69623;SDS011;56843;52.020;5.670;2022-09-24T04:33:03;19.00;;;10.37;;
69623;SDS011;56843;52.020;5.670;2022-09-24T04:34:34;26.10;;;12.18;;
69623;SDS011;56843;52.020;5.670;2022-09-24T04:36:04;23.53;;;12.00;;
69623;SDS011;56843;52.020;5.670;2022-09-24T04:37:35;25.53;;;12.30;;
69623;SDS011;56843;52.020;5.670;2022-09-24T04:39:05;25.13;;;12.07;;
69623;SDS011;56843;52.020;5.670;2022-09-24T04:40:36;24.57;;;12.07;;
69623;SDS011;56843;52.020;5.670;2022-09-24T04:42:08;24.35;;;11.88;;
69623;SDS011;56843;52.020;5.670;2022-09-24T04:43:39;22.67;;;11.57;;
69623;SDS011;56843;52.020;5.670;2022-09-24T04:45:09;23.48;;;11.55;;
69623;SDS011;56843;52.020;5.670;2022-09-24T04:46:40;24.30;;;12.90;;
69623;SDS011;56843;52.020;5.670;2022-09-24T04:48:11;26.33;;;12.82;;
69623;SDS011;56843;52.020;5.670;2022-09-24T04:49:42;23.83;;;12.00;;
69623;SDS011;56843;52.020;5.670;2022-09-24T04:51:14;28.92;;;13.57;;
69623;SDS011;56843;52.020;5.670;2022-09-24T04:52:48;25.15;;;12.88;;
69623;SDS011;56843;52.020;5.670;2022-09-24T04:54:18;25.77;;;12.30;;
69623;SDS011;56843;52.020;5.670;2022-09-24T04:55:49;21.87;;;11.93;;
69623;SDS011;56843;52.020;5.670;2022-09-24T04:57:21;23.75;;;11.85;;
69623;SDS011;56843;52.020;5.670;2022-09-24T04:58:52;23.23;;;11.50;;
69623;SDS011;56843;52.020;5.670;2022-09-24T05:00:23;23.37;;;10.80;;
69623;SDS011;56843;52.020;5.670;2022-09-24T05:01:54;27.35;;;13.27;;
69623;SDS011;56843;52.020;5.670;2022-09-24T05:03:25;27.75;;;13.10;;
69623;SDS011;56843;52.020;5.670;2022-09-24T05:04:55;24.73;;;11.77;;
69623;SDS011;56843;52.020;5.670;2022-09-24T05:06:25;22.77;;;10.30;;
69623;SDS011;56843;52.020;5.670;2022-09-24T05:07:56;23.50;;;11.63;;
69623;SDS011;56843;52.020;5.670;2022-09-24T05:09:27;21.27;;;11.53;;
69623;SDS011;56843;52.020;5.670;2022-09-24T05:10:59;28.45;;;12.35;;
69623;SDS011;56843;52.020;5.670;2022-09-24T05:12:31;25.30;;;12.15;;
69623;SDS011;56843;52.020;5.670;2022-09-24T05:14:03;26.58;;;12.32;;
69623;SDS011;56843;52.020;5.670;2022-09-24T05:15:35;23.20;;;11.25;;
69623;SDS011;56843;52.020;5.670;2022-09-24T05:17:05;24.80;;;11.67;;
69623;SDS011;56843;52.020;5.670;2022-09-24T05:18:36;23.77;;;11.82;;
69623;SDS011;56843;52.020;5.670;2022-09-24T05:20:06;25.43;;;12.23;;
69623;SDS011;56843;52.020;5.670;2022-09-24T05:21:39;23.70;;;11.93;;
69623;SDS011;56843;52.020;5.670;2022-09-24T05:23:09;23.77;;;11.53;;
69623;SDS011;56843;52.020;5.670;2022-09-24T05:24:40;24.73;;;11.30;;
69623;SDS011;56843;52.020;5.670;2022-09-24T05:26:10;29.20;;;11.80;;
69623;SDS011;56843;52.020;5.670;2022-09-24T05:27:59;29.45;;;12.00;;
69623;SDS011;56843;52.020;5.670;2022-09-24T05:29:30;22.50;;;11.80;;
69623;SDS011;56843;52.020;5.670;2022-09-24T05:31:01;22.80;;;11.83;;
69623;SDS011;56843;52.020;5.670;2022-09-24T05:32:31;19.33;;;9.23;;
69623;SDS011;56843;52.020;5.670;2022-09-24T05:34:03;21.92;;;11.00;;
69623;SDS011;56843;52.020;5.670;2022-09-24T05:35:34;22.80;;;11.25;;
69623;SDS011;56843;52.020;5.670;2022-09-24T05:37:04;20.90;;;10.03;;
69623;SDS011;56843;52.020;5.670;2022-09-24T05:38:35;23.90;;;11.80;;
69623;SDS011;56843;52.020;5.670;2022-09-24T05:40:06;22.90;;;11.30;;
69623;SDS011;56843;52.020;5.670;2022-09-24T05:41:55;28.30;;;11.90;;
69623;SDS011;56843;52.020;5.670;2022-09-24T05:43:26;22.00;;;10.70;;
69623;SDS011;56843;52.020;5.670;2022-09-24T05:44:56;22.70;;;11.10;;
69623;SDS011;56843;52.020;5.670;2022-09-24T05:46:27;26.15;;;11.35;;
69623;SDS011;56843;52.020;5.670;2022-09-24T05:47:58;20.07;;;9.10;;
69623;SDS011;56843;52.020;5.670;2022-09-24T05:49:29;28.27;;;11.57;;
69623;SDS011;56843;52.020;5.670;2022-09-24T05:51:00;19.97;;;9.67;;
69623;SDS011;56843;52.020;5.670;2022-09-24T05:52:30;20.00;;;10.07;;
69623;SDS011;56843;52.020;5.670;2022-09-24T05:54:01;21.77;;;10.13;;
69623;SDS011;56843;52.020;5.670;2022-09-24T05:55:32;23.15;;;11.15;;
69623;SDS011;56843;52.020;5.670;2022-09-24T05:57:02;21.23;;;11.33;;
69623;SDS011;56843;52.020;5.670;2022-09-24T05:58:33;22.10;;;11.40;;
69623;SDS011;56843;52.020;5.670;2022-09-24T06:00:04;21.60;;;10.87;;
69623;SDS011;56843;52.020;5.670;2022-09-24T06:01:42;20.40;;;11.70;;
69623;SDS011;56843;52.020;5.670;2022-09-24T06:03:13;21.03;;;10.63;;
69623;SDS011;56843;52.020;5.670;2022-09-24T06:04:45;24.48;;;11.90;;
69623;SDS011;56843;52.020;5.670;2022-09-24T06:06:16;22.70;;;10.90;;
69623;SDS011;56843;52.020;5.670;2022-09-24T06:07:46;21.35;;;10.90;;
69623;SDS011;56843;52.020;5.670;2022-09-24T06:09:16;32.67;;;12.27;;
69623;SDS011;56843;52.020;5.670;2022-09-24T06:10:47;23.73;;;11.60;;
69623;SDS011;56843;52.020;5.670;2022-09-24T06:12:17;24.45;;;12.27;;
69623;SDS011;56843;52.020;5.670;2022-09-24T06:13:51;21.47;;;10.90;;
69623;SDS011;56843;52.020;5.670;2022-09-24T06:15:22;23.73;;;11.93;;
69623;SDS011;56843;52.020;5.670;2022-09-24T06:16:53;21.02;;;11.40;;
69623;SDS011;56843;52.020;5.670;2022-09-24T06:18:23;27.33;;;11.63;;
69623;SDS011;56843;52.020;5.670;2022-09-24T06:19:57;24.00;;;12.50;;
69623;SDS011;56843;52.020;5.670;2022-09-24T06:21:27;21.98;;;11.15;;
69623;SDS011;56843;52.020;5.670;2022-09-24T06:23:00;23.77;;;12.43;;
69623;SDS011;56843;52.020;5.670;2022-09-24T06:24:31;23.93;;;12.10;;
69623;SDS011;56843;52.020;5.670;2022-09-24T06:26:02;26.13;;;11.82;;
69623;SDS011;56843;52.020;5.670;2022-09-24T06:27:34;23.73;;;12.10;;
69623;SDS011;56843;52.020;5.670;2022-09-24T06:29:09;21.60;;;10.37;;
69623;SDS011;56843;52.020;5.670;2022-09-24T06:30:42;23.60;;;12.07;;
69623;SDS011;56843;52.020;5.670;2022-09-24T06:32:15;24.38;;;12.57;;
69623;SDS011;56843;52.020;5.670;2022-09-24T06:33:46;20.35;;;10.85;;
69623;SDS011;56843;52.020;5.670;2022-09-24T06:35:17;27.40;;;11.68;;
69623;SDS011;56843;52.020;5.670;2022-09-24T06:36:47;24.37;;;12.97;;
69623;SDS011;56843;52.020;5.670;2022-09-24T06:38:22;24.77;;;12.98;;
69623;SDS011;56843;52.020;5.670;2022-09-24T06:39:53;22.80;;;11.80;;
69623;SDS011;56843;52.020;5.670;2022-09-24T06:41:23;23.53;;;11.77;;
69623;SDS011;56843;52.020;5.670;2022-09-24T06:42:54;23.27;;;11.55;;
69623;SDS011;56843;52.020;5.670;2022-09-24T06:44:24;26.77;;;12.80;;
69623;SDS011;56843;52.020;5.670;2022-09-24T06:45:57;24.98;;;12.27;;
69623;SDS011;56843;52.020;5.670;2022-09-24T06:47:28;23.25;;;12.55;;
69623;SDS011;56843;52.020;5.670;2022-09-24T06:48:59;27.57;;;12.77;;
69623;SDS011;56843;52.020;5.670;2022-09-24T06:50:30;27.20;;;12.57;;
69623;SDS011;56843;52.020;5.670;2022-09-24T06:52:02;23.60;;;11.50;;
69623;SDS011;56843;52.020;5.670;2022-09-24T06:53:33;24.50;;;11.45;;
69623;SDS011;56843;52.020;5.670;2022-09-24T06:55:04;24.45;;;11.77;;
69623;SDS011;56843;52.020;5.670;2022-09-24T06:56:35;22.40;;;11.15;;
69623;SDS011;56843;52.020;5.670;2022-09-24T06:58:09;22.47;;;12.37;;
69623;SDS011;56843;52.020;5.670;2022-09-24T06:59:41;22.25;;;11.20;;
69623;SDS011;56843;52.020;5.670;2022-09-24T07:01:12;24.30;;;12.33;;
69623;SDS011;56843;52.020;5.670;2022-09-24T07:02:42;24.67;;;11.87;;
69623;SDS011;56843;52.020;5.670;2022-09-24T07:04:15;23.25;;;10.90;;
69623;SDS011;56843;52.020;5.670;2022-09-24T07:05:45;25.50;;;13.33;;
69623;SDS011;56843;52.020;5.670;2022-09-24T07:07:16;24.27;;;12.67;;
69623;SDS011;56843;52.020;5.670;2022-09-24T07:09:01;22.65;;;11.27;;
69623;SDS011;56843;52.020;5.670;2022-09-24T07:10:31;25.27;;;13.20;;
69623;SDS011;56843;52.020;5.670;2022-09-24T07:12:02;23.02;;;11.63;;
69623;SDS011;56843;52.020;5.670;2022-09-24T07:13:35;23.85;;;11.18;;
69623;SDS011;56843;52.020;5.670;2022-09-24T07:15:05;21.97;;;12.10;;
69623;SDS011;56843;52.020;5.670;2022-09-24T07:16:37;23.60;;;12.27;;
69623;SDS011;56843;52.020;5.670;2022-09-24T07:18:09;25.05;;;11.23;;
69623;SDS011;56843;52.020;5.670;2022-09-24T07:19:40;18.35;;;10.30;;
69623;SDS011;56843;52.020;5.670;2022-09-24T07:21:11;19.55;;;10.80;;
69623;SDS011;56843;52.020;5.670;2022-09-24T07:22:42;21.33;;;11.07;;
69623;SDS011;56843;52.020;5.670;2022-09-24T07:24:12;21.80;;;11.07;;
69623;SDS011;56843;52.020;5.670;2022-09-24T07:25:43;19.03;;;10.93;;
69623;SDS011;56843;52.020;5.670;2022-09-24T07:27:13;19.05;;;10.00;;
69623;SDS011;56843;52.020;5.670;2022-09-24T07:28:44;20.73;;;10.77;;
69623;SDS011;56843;52.020;5.670;2022-09-24T07:30:22;21.77;;;12.07;;
69623;SDS011;56843;52.020;5.670;2022-09-24T07:31:52;22.93;;;11.57;;
69623;SDS011;56843;52.020;5.670;2022-09-24T07:33:25;22.15;;;11.55;;
69623;SDS011;56843;52.020;5.670;2022-09-24T07:34:56;20.70;;;9.80;;
69623;SDS011;56843;52.020;5.670;2022-09-24T07:36:26;19.17;;;10.40;;
69623;SDS011;56843;52.020;5.670;2022-09-24T07:38:03;23.83;;;10.65;;
69623;SDS011;56843;52.020;5.670;2022-09-24T07:39:38;19.58;;;9.75;;
69623;SDS011;56843;52.020;5.670;2022-09-24T07:41:09;23.47;;;10.67;;
69623;SDS011;56843;52.020;5.670;2022-09-24T07:42:45;22.95;;;11.40;;
69623;SDS011;56843;52.020;5.670;2022-09-24T07:44:20;19.15;;;11.02;;
69623;SDS011;56843;52.020;5.670;2022-09-24T07:45:54;20.98;;;11.13;;
69623;SDS011;56843;52.020;5.670;2022-09-24T07:47:25;20.35;;;10.98;;
69623;SDS011;56843;52.020;5.670;2022-09-24T07:48:56;20.07;;;11.20;;
69623;SDS011;56843;52.020;5.670;2022-09-24T07:50:27;20.15;;;11.50;;
69623;SDS011;56843;52.020;5.670;2022-09-24T07:51:59;21.13;;;12.07;;
69623;SDS011;56843;52.020;5.670;2022-09-24T07:53:30;20.15;;;10.48;;
69623;SDS011;56843;52.020;5.670;2022-09-24T07:55:00;22.38;;;10.73;;
69623;SDS011;56843;52.020;5.670;2022-09-24T07:56:31;26.10;;;12.90;;
69623;SDS011;56843;52.020;5.670;2022-09-24T07:58:05;22.05;;;12.02;;
69623;SDS011;56843;52.020;5.670;2022-09-24T07:59:44;22.25;;;11.55;;
69623;SDS011;56843;52.020;5.670;2022-09-24T08:01:15;22.17;;;12.43;;
69623;SDS011;56843;52.020;5.670;2022-09-24T08:02:48;19.42;;;10.95;;
69623;SDS011;56843;52.020;5.670;2022-09-24T08:04:20;22.40;;;11.80;;
69623;SDS011;56843;52.020;5.670;2022-09-24T08:05:53;24.40;;;11.63;;
69623;SDS011;56843;52.020;5.670;2022-09-24T08:07:31;31.52;;;12.18;;
69623;SDS011;56843;52.020;5.670;2022-09-24T08:09:04;24.03;;;12.30;;
69623;SDS011;56843;52.020;5.670;2022-09-24T08:10:34;24.40;;;12.00;;
69623;SDS011;56843;52.020;5.670;2022-09-24T08:12:05;25.87;;;12.10;;
69623;SDS011;56843;52.020;5.670;2022-09-24T08:13:37;29.75;;;11.10;;
69623;SDS011;56843;52.020;5.670;2022-09-24T08:15:08;27.38;;;12.30;;
69623;SDS011;56843;52.020;5.670;2022-09-24T08:16:39;25.73;;;12.07;;
69623;SDS011;56843;52.020;5.670;2022-09-24T08:18:10;29.58;;;12.82;;
69623;SDS011;56843;52.020;5.670;2022-09-24T08:19:43;29.80;;;12.27;;
69623;SDS011;56843;52.020;5.670;2022-09-24T08:21:15;30.92;;;12.23;;
69623;SDS011;56843;52.020;5.670;2022-09-24T08:22:46;28.50;;;12.32;;
69623;SDS011;56843;52.020;5.670;2022-09-24T08:24:17;31.52;;;13.32;;
69623;SDS011;56843;52.020;5.670;2022-09-24T08:25:47;22.50;;;12.33;;
69623;SDS011;56843;52.020;5.670;2022-09-24T08:27:22;32.72;;;12.95;;
69623;SDS011;56843;52.020;5.670;2022-09-24T08:28:55;30.38;;;12.52;;
69623;SDS011;56843;52.020;5.670;2022-09-24T08:30:28;28.40;;;12.60;;
69623;SDS011;56843;52.020;5.670;2022-09-24T08:32:02;74.82;;;17.45;;
69623;SDS011;56843;52.020;5.670;2022-09-24T08:33:35;43.57;;;13.17;;
69623;SDS011;56843;52.020;5.670;2022-09-24T08:35:07;31.97;;;13.87;;
69623;SDS011;56843;52.020;5.670;2022-09-24T08:36:40;27.60;;;12.30;;
69623;SDS011;56843;52.020;5.670;2022-09-24T08:38:11;22.25;;;11.95;;
69623;SDS011;56843;52.020;5.670;2022-09-24T08:39:41;25.30;;;12.13;;
69623;SDS011;56843;52.020;5.670;2022-09-24T08:44:41;25.52;;;12.68;;
69623;SDS011;56843;52.020;5.670;2022-09-24T08:48:50;25.63;;;12.03;;
69623;SDS011;56843;52.020;5.670;2022-09-24T08:50:23;25.17;;;11.83;;
69623;SDS011;56843;52.020;5.670;2022-09-24T08:53:47;23.90;;;10.95;;
69623;SDS011;56843;52.020;5.670;2022-09-24T08:57:47;23.25;;;10.40;;
69623;SDS011;56843;52.020;5.670;2022-09-24T09:01:04;30.13;;;13.60;;
69623;SDS011;56843;52.020;5.670;2022-09-24T09:02:46;25.35;;;11.98;;
69623;SDS011;56843;52.020;5.670;2022-09-24T09:08:00;25.03;;;12.77;;
69623;SDS011;56843;52.020;5.670;2022-09-24T09:11:23;24.77;;;12.20;;
69623;SDS011;56843;52.020;5.670;2022-09-24T09:13:08;25.40;;;12.65;;
69623;SDS011;56843;52.020;5.670;2022-09-24T09:16:46;22.25;;;11.25;;
69623;SDS011;56843;52.020;5.670;2022-09-24T09:18:27;24.33;;;12.90;;
69623;SDS011;56843;52.020;5.670;2022-09-24T09:20:09;24.45;;;12.32;;
69623;SDS011;56843;52.020;5.670;2022-09-24T09:21:51;25.50;;;11.85;;
69623;SDS011;56843;52.020;5.670;2022-09-24T09:23:36;24.83;;;12.23;;
69623;SDS011;56843;52.020;5.670;2022-09-24T09:26:50;27.83;;;11.88;;
69623;SDS011;56843;52.020;5.670;2022-09-24T09:28:28;26.90;;;12.95;;
69623;SDS011;56843;52.020;5.670;2022-09-24T09:30:03;29.95;;;13.23;;
69623;SDS011;56843;52.020;5.670;2022-09-24T09:33:45;23.10;;;11.65;;
69623;SDS011;56843;52.020;5.670;2022-09-24T09:35:23;25.02;;;12.30;;
69623;SDS011;56843;52.020;5.670;2022-09-24T09:37:06;23.30;;;12.20;;
69623;SDS011;56843;52.020;5.670;2022-09-24T09:38:51;24.08;;;12.52;;
69623;SDS011;56843;52.020;5.670;2022-09-24T09:40:36;24.67;;;12.87;;
69623;SDS011;56843;52.020;5.670;2022-09-24T09:42:18;25.83;;;14.07;;
69623;SDS011;56843;52.020;5.670;2022-09-24T09:44:01;27.25;;;12.77;;